createdAt,value
2022-12-16T00:01:58.486Z,36.38
2022-12-16T00:04:29.234Z,34.50
2022-12-16T00:07:00.191Z,34.80
2022-12-16T00:09:33.928Z,34.30
2022-12-16T00:12:06.054Z,35.65
2022-12-16T00:14:36.778Z,34.20
2022-12-16T00:17:10.319Z,35.85
2022-12-16T00:19:41.047Z,33.58
2022-12-16T00:22:11.837Z,32.75
2022-12-16T00:28:00.325Z,32.13
2022-12-16T00:30:31.327Z,33.65
2022-12-16T00:33:07.032Z,32.70
2022-12-16T00:35:40.527Z,33.78
2022-12-16T00:38:18.089Z,33.00
2022-12-16T00:40:50.205Z,31.17
2022-12-16T00:43:24.291Z,32.80
2022-12-16T00:45:55.076Z,33.05
2022-12-16T00:48:29.844Z,30.67
2022-12-16T00:51:00.599Z,31.95
2022-12-16T00:53:32.170Z,31.98
2022-12-16T00:56:07.075Z,32.08
2022-12-16T00:58:38.126Z,31.50
2022-12-16T01:01:09.801Z,30.80
2022-12-16T01:03:43.469Z,30.27
2022-12-16T01:06:16.758Z,30.90
2022-12-16T01:08:51.069Z,31.42
2022-12-16T01:14:25.731Z,29.65
2022-12-16T01:16:58.420Z,30.70
2022-12-16T01:19:32.049Z,28.00
2022-12-16T01:24:56.644Z,27.67
2022-12-16T01:27:28.404Z,28.20
2022-12-16T01:29:59.518Z,28.02
2022-12-16T01:32:33.119Z,27.63
2022-12-16T01:35:29.455Z,26.30
2022-12-16T01:38:01.067Z,27.40
2022-12-16T01:40:32.859Z,26.45
2022-12-16T01:43:03.624Z,26.40
2022-12-16T01:45:36.845Z,27.90
2022-12-16T01:48:21.254Z,25.15
2022-12-16T01:50:58.976Z,24.58
2022-12-16T01:53:30.569Z,25.58
2022-12-16T01:56:04.066Z,24.13
2022-12-16T01:58:37.520Z,24.73
2022-12-16T02:01:09.289Z,23.67
2022-12-16T02:03:40.477Z,24.20
2022-12-16T02:06:14.214Z,24.85
2022-12-16T02:12:22.206Z,23.63
2022-12-16T02:15:17.911Z,23.65
2022-12-16T02:17:57.772Z,24.08
2022-12-16T02:21:03.496Z,23.45
2022-12-16T02:23:57.173Z,23.95
2022-12-16T02:27:07.725Z,22.90
2022-12-16T02:30:04.823Z,22.77
2022-12-16T02:32:48.439Z,22.70
2022-12-16T02:35:28.447Z,23.52
2022-12-16T02:38:09.236Z,23.50
2022-12-16T02:40:44.747Z,23.17
2022-12-16T02:43:25.148Z,23.75
2022-12-16T02:45:56.170Z,22.48
2022-12-16T02:51:42.941Z,22.98
2022-12-16T02:54:15.071Z,21.50
2022-12-16T02:57:03.583Z,22.30
2022-12-16T02:59:42.043Z,22.95
2022-12-16T03:02:20.224Z,23.35
2022-12-16T03:04:55.348Z,20.70
2022-12-16T03:07:32.117Z,21.67
2022-12-16T03:10:03.795Z,21.40
2022-12-16T03:12:36.732Z,23.02
2022-12-16T03:15:11.307Z,22.35
2022-12-16T03:17:42.750Z,22.83
2022-12-16T03:20:19.421Z,22.60
2022-12-16T03:22:57.041Z,24.08
2022-12-16T03:25:29.794Z,22.83
2022-12-16T03:28:07.726Z,21.15
2022-12-16T03:30:45.249Z,21.52
2022-12-16T03:33:22.193Z,21.35
2022-12-16T03:35:59.246Z,23.08
2022-12-16T03:38:34.927Z,23.58
2022-12-16T03:41:09.399Z,23.00
2022-12-16T03:43:43.272Z,21.70
2022-12-16T03:46:15.792Z,21.65
2022-12-16T03:48:51.607Z,23.63
2022-12-16T03:51:22.875Z,23.85
2022-12-16T03:53:56.172Z,23.13
2022-12-16T03:56:28.774Z,21.23
2022-12-16T03:58:59.468Z,21.73
2022-12-16T04:01:30.498Z,21.10
2022-12-16T04:04:01.363Z,20.92
2022-12-16T04:06:32.584Z,21.67
2022-12-16T04:09:06.338Z,21.83
2022-12-16T04:11:52.595Z,21.20
2022-12-16T04:14:36.134Z,21.58
2022-12-16T04:17:20.419Z,23.65
2022-12-16T04:20:05.147Z,22.40
2022-12-16T04:22:51.852Z,21.17
2022-12-16T04:25:27.927Z,21.73
2022-12-16T04:28:00.822Z,21.73
2022-12-16T04:46:27.628Z,22.10
2022-12-16T04:49:10.903Z,21.98
2022-12-16T04:51:54.248Z,22.30
2022-12-16T04:54:37.410Z,21.35
2022-12-16T04:57:20.632Z,20.85
2022-12-16T05:00:06.492Z,21.00
2022-12-16T05:02:52.349Z,22.77
2022-12-16T05:05:39.974Z,22.77
2022-12-16T05:08:23.233Z,22.77
2022-12-16T05:11:07.831Z,21.75
2022-12-16T05:13:51.060Z,22.65
2022-12-16T05:16:37.253Z,22.50
2022-12-16T05:19:27.053Z,20.77
2022-12-16T05:22:13.199Z,21.80
2022-12-16T05:24:57.323Z,21.38
2022-12-16T05:27:40.563Z,22.38
2022-12-16T05:30:31.995Z,21.42
2022-12-16T05:33:18.908Z,23.02
2022-12-16T05:36:04.753Z,21.77
2022-12-16T05:38:53.423Z,23.52
2022-12-16T05:41:36.649Z,22.00
2022-12-16T05:44:22.856Z,25.33
2022-12-16T05:47:06.186Z,21.95
2022-12-16T05:49:49.487Z,22.95
2022-12-16T05:52:35.393Z,21.52
2022-12-16T05:58:05.046Z,23.02
2022-12-16T06:00:48.340Z,20.92
2022-12-16T06:03:31.923Z,21.52
2022-12-16T06:06:17.061Z,20.40
2022-12-16T06:09:03.036Z,20.45
2022-12-16T06:11:47.645Z,21.38
2022-12-16T06:14:31.126Z,21.70
2022-12-16T06:17:14.801Z,21.55
2022-12-16T06:19:58.017Z,21.15
2022-12-16T06:22:41.323Z,19.45
2022-12-16T06:25:27.153Z,41.78
2022-12-16T06:28:10.360Z,25.90
2022-12-16T06:30:53.903Z,21.80
2022-12-16T06:33:38.551Z,24.70
2022-12-16T06:36:23.280Z,20.70
2022-12-16T06:39:06.459Z,20.30
2022-12-16T06:41:55.916Z,19.48
2022-12-16T06:44:39.257Z,21.85
2022-12-16T06:47:22.582Z,22.00
2022-12-16T06:50:05.863Z,19.67
2022-12-16T06:52:49.077Z,20.90
2022-12-16T06:55:32.455Z,19.83
2022-12-16T06:58:18.288Z,18.63
2022-12-16T07:01:02.859Z,19.17
2022-12-16T07:03:46.310Z,17.20
2022-12-16T07:06:32.958Z,17.13
2022-12-16T07:09:16.391Z,18.95
2022-12-16T07:11:59.585Z,17.25
2022-12-16T07:14:45.449Z,17.70
2022-12-16T07:17:28.703Z,19.20
2022-12-16T07:20:11.917Z,19.05
2022-12-16T07:23:06.188Z,19.08
2022-12-16T07:25:54.727Z,19.92
2022-12-16T07:28:38.070Z,20.60
2022-12-16T07:34:13.334Z,21.48
2022-12-16T07:36:56.608Z,20.50
2022-12-16T07:39:41.485Z,18.80
2022-12-16T07:42:24.979Z,18.63
2022-12-16T07:45:11.034Z,20.60
2022-12-16T07:48:01.551Z,18.13
2022-12-16T07:50:51.333Z,19.25
2022-12-16T07:53:35.240Z,19.17
2022-12-16T07:56:19.180Z,18.23
2022-12-16T07:59:02.441Z,18.75
2022-12-16T08:01:46.416Z,17.88
2022-12-16T08:04:29.922Z,17.80
2022-12-16T08:07:15.854Z,18.50
2022-12-16T08:09:59.069Z,19.92
2022-12-16T08:12:42.504Z,17.90
2022-12-16T08:15:26.094Z,18.52
2022-12-16T08:18:09.626Z,18.75
2022-12-16T08:20:52.906Z,17.88
2022-12-16T08:23:41.234Z,17.73
2022-12-16T08:26:25.138Z,18.30
2022-12-16T08:29:42.056Z,18.70
2022-12-16T08:32:12.781Z,18.60
2022-12-16T08:34:56.873Z,18.40
2022-12-16T08:37:42.737Z,17.98
2022-12-16T08:40:37.036Z,17.17
2022-12-16T08:43:20.522Z,16.95
2022-12-16T08:46:04.067Z,16.17
2022-12-16T08:48:47.388Z,15.68
2022-12-16T08:51:33.328Z,16.52
2022-12-16T08:54:16.836Z,17.00
2022-12-16T08:57:02.876Z,16.40
2022-12-16T08:59:46.102Z,15.23
2022-12-16T09:02:29.770Z,16.63
2022-12-16T09:05:13.446Z,18.17
2022-12-16T09:07:59.735Z,17.33
2022-12-16T09:10:43.150Z,17.67
2022-12-16T09:13:31.256Z,16.75
2022-12-16T09:16:19.309Z,17.63
2022-12-16T09:19:04.110Z,16.80
2022-12-16T09:21:47.331Z,18.27
2022-12-16T09:24:30.582Z,19.52
2022-12-16T09:27:13.834Z,16.98
2022-12-16T09:29:59.918Z,19.08
2022-12-16T09:32:43.351Z,19.20
2022-12-16T09:35:26.916Z,20.00
2022-12-16T09:38:12.953Z,19.45
2022-12-16T09:40:58.057Z,24.02
2022-12-16T09:44:09.635Z,27.50
2022-12-16T09:47:08.546Z,27.38
2022-12-16T09:50:00.623Z,27.38
2022-12-16T09:52:47.514Z,28.38
2022-12-16T09:55:40.723Z,25.65
2022-12-16T09:58:29.070Z,26.30
2022-12-16T12:40:37.389Z,25.20
2022-12-16T12:43:30.975Z,25.00
2022-12-16T12:46:21.556Z,26.30
2022-12-16T12:49:12.960Z,25.45
2022-12-16T12:55:05.010Z,27.45
2022-12-16T12:57:53.315Z,27.35
2022-12-16T13:03:47.400Z,26.85
2022-12-16T13:09:44.986Z,28.70
2022-12-16T13:12:43.457Z,28.55
2022-12-16T13:15:35.275Z,30.10
2022-12-16T14:01:28.248Z,30.55
2022-12-16T14:04:13.556Z,30.55
2022-12-16T14:06:56.949Z,31.17
2022-12-16T14:15:43.555Z,31.02
2022-12-16T14:18:43.939Z,33.40
2022-12-16T14:21:32.628Z,32.50
2022-12-16T14:24:23.921Z,34.80
2022-12-16T14:27:07.870Z,32.63
2022-12-16T14:30:06.056Z,31.00
2022-12-16T14:32:50.581Z,32.55
2022-12-16T14:35:38.349Z,33.25
2022-12-16T14:38:38.241Z,33.22
2022-12-16T14:41:23.230Z,33.20
2022-12-16T14:44:06.526Z,31.55
2022-12-16T14:56:35.177Z,32.05
2022-12-16T14:59:33.033Z,31.38
2022-12-16T15:02:49.861Z,30.85
2022-12-16T15:05:40.057Z,31.67
2022-12-16T15:08:26.999Z,33.17
2022-12-16T15:11:11.971Z,30.45
2022-12-16T15:14:03.766Z,32.05
2022-12-16T15:16:55.420Z,32.47
2022-12-16T15:19:47.425Z,31.30
2022-12-16T15:22:34.933Z,31.23
2022-12-16T15:25:21.910Z,34.22
2022-12-16T15:28:10.558Z,32.17
2022-12-16T15:36:52.755Z,33.80
2022-12-16T15:45:45.291Z,33.20
2022-12-16T15:48:33.639Z,32.40
2022-12-16T15:51:22.608Z,35.20
2022-12-16T15:54:19.829Z,34.78
2022-12-16T15:57:08.358Z,33.60
2022-12-16T15:59:53.352Z,33.53
2022-12-16T16:02:40.024Z,35.30
2022-12-16T16:05:29.307Z,35.05
2022-12-16T16:08:14.081Z,35.78
2022-12-16T16:11:01.919Z,38.50
2022-12-16T16:13:45.182Z,37.58
2022-12-16T16:22:29.669Z,34.83
2022-12-16T16:28:20.687Z,38.85
2022-12-16T16:31:03.981Z,37.28
2022-12-16T16:33:47.677Z,40.67
2022-12-16T16:36:32.048Z,38.60
2022-12-16T16:39:30.171Z,39.05
2022-12-16T16:42:15.035Z,39.10
2022-12-16T16:45:00.846Z,37.05
2022-12-16T16:47:44.400Z,37.58
2022-12-16T16:50:29.141Z,42.33
2022-12-16T16:53:12.574Z,39.35
2022-12-16T16:55:55.851Z,40.22
2022-12-16T16:58:42.419Z,43.47
2022-12-16T17:01:31.799Z,41.03
2022-12-16T17:04:18.279Z,42.13
2022-12-16T17:07:02.295Z,39.33
2022-12-16T17:09:45.565Z,44.60
2022-12-16T17:12:35.207Z,43.85
2022-12-16T17:15:27.511Z,41.58
2022-12-16T17:18:13.724Z,42.47
2022-12-16T17:20:57.236Z,43.80
2022-12-16T17:23:40.482Z,46.53
2022-12-16T17:26:25.364Z,46.15
2022-12-16T17:29:12.951Z,46.83
2022-12-16T17:31:56.236Z,47.10
2022-12-16T17:34:42.089Z,46.85
2022-12-16T17:37:25.315Z,47.42
2022-12-16T17:40:08.998Z,48.70
2022-12-16T17:43:06.894Z,48.42
2022-12-16T17:45:51.113Z,49.47
2022-12-16T17:48:34.543Z,48.10
2022-12-16T17:51:22.959Z,47.15
2022-12-16T17:54:16.044Z,51.17
2022-12-16T17:57:03.357Z,48.50
2022-12-16T17:59:50.456Z,46.53
2022-12-16T18:02:36.730Z,50.08
2022-12-16T18:05:22.705Z,51.75
2022-12-16T18:08:12.049Z,54.78
2022-12-16T18:10:55.380Z,51.97
2022-12-16T18:13:38.650Z,54.15
2022-12-16T18:16:22.432Z,54.50
2022-12-16T18:19:05.727Z,50.53
2022-12-16T18:21:48.945Z,53.03
2022-12-16T18:24:34.940Z,51.63
2022-12-16T18:27:18.240Z,56.10
2022-12-16T18:30:02.247Z,54.97
2022-12-16T18:32:45.736Z,54.17
2022-12-16T18:35:37.726Z,55.00
2022-12-16T18:38:20.997Z,52.05
2022-12-16T18:41:06.871Z,53.55
2022-12-16T18:43:52.405Z,58.20
2022-12-16T18:46:41.334Z,57.40
2022-12-16T18:52:25.531Z,59.00
2022-12-16T18:55:08.763Z,59.28
2022-12-16T18:57:54.601Z,60.35
2022-12-16T19:00:39.740Z,57.88
2022-12-16T19:03:23.150Z,55.88
2022-12-16T19:06:10.016Z,58.75
2022-12-16T19:08:56.329Z,56.95
2022-12-16T19:11:39.732Z,58.78
2022-12-16T19:14:25.327Z,55.97
2022-12-16T19:17:08.682Z,57.20
2022-12-16T19:19:52.317Z,56.85
2022-12-16T19:22:39.278Z,56.47
2022-12-16T19:25:23.208Z,55.42
2022-12-16T19:34:18.049Z,57.60
2022-12-16T19:37:06.184Z,61.97
2022-12-16T19:39:49.608Z,66.97
2022-12-16T19:42:33.333Z,65.47
2022-12-16T19:45:16.667Z,72.88
2022-12-16T19:47:59.859Z,76.05
2022-12-16T19:50:43.336Z,72.95
2022-12-16T19:53:29.324Z,82.72
2022-12-16T19:56:13.731Z,81.65
2022-12-16T19:58:59.303Z,69.90
2022-12-16T20:01:42.815Z,73.03
2022-12-16T20:04:26.129Z,70.65
2022-12-16T20:07:10.718Z,70.65
2022-12-16T20:10:05.797Z,70.20
2022-12-16T20:12:56.103Z,67.57
2022-12-16T20:15:40.896Z,70.38
2022-12-16T20:18:24.379Z,70.55
2022-12-16T20:21:08.033Z,73.93
2022-12-16T20:23:51.743Z,72.38
2022-12-16T20:26:37.973Z,75.65
2022-12-16T20:29:23.092Z,75.97
2022-12-16T20:32:08.618Z,71.22
2022-12-16T20:34:54.615Z,71.40
2022-12-16T20:37:39.833Z,73.05
2022-12-16T20:40:24.706Z,72.95
2022-12-16T20:43:10.632Z,75.90
2022-12-16T20:45:54.881Z,70.13
2022-12-16T20:48:42.015Z,69.22
2022-12-16T20:51:27.047Z,68.72
2022-12-16T20:54:12.094Z,66.07
2022-12-16T20:56:55.622Z,71.53
2022-12-16T20:59:42.134Z,70.07
2022-12-16T21:02:33.051Z,68.95
2022-12-16T21:05:17.742Z,64.70
2022-12-16T21:08:03.490Z,70.00
2022-12-16T21:10:46.759Z,66.15
